sensor_id;sensor_type;location;lat;lon;timestamp;P1;durP1;ratioP1;P2;durP2;ratioP2
14040;SDS011;7095;51.388;6.196;2023-03-14T00:00:05;9.00;;;2.30;;
14040;SDS011;7095;51.388;6.196;2023-03-14T00:02:36;11.00;;;2.57;;
14040;SDS011;7095;51.388;6.196;2023-03-14T00:05:05;8.47;;;2.50;;
14040;SDS011;7095;51.388;6.196;2023-03-14T00:07:34;13.53;;;2.97;;
14040;SDS011;7095;51.388;6.196;2023-03-14T00:10:04;10.90;;;3.90;;
14040;SDS011;7095;51.388;6.196;2023-03-14T00:12:34;11.47;;;2.50;;
14040;SDS011;7095;51.388;6.196;2023-03-14T00:15:03;10.27;;;2.50;;
14040;SDS011;7095;51.388;6.196;2023-03-14T00:17:33;9.60;;;2.30;;
14040;SDS011;7095;51.388;6.196;2023-03-14T00:20:04;10.10;;;2.60;;
14040;SDS011;7095;51.388;6.196;2023-03-14T00:22:38;11.83;;;2.53;;
14040;SDS011;7095;51.388;6.196;2023-03-14T00:25:07;10.30;;;2.63;;
14040;SDS011;7095;51.388;6.196;2023-03-14T00:27:37;11.37;;;2.63;;
14040;SDS011;7095;51.388;6.196;2023-03-14T00:30:06;7.03;;;2.57;;
14040;SDS011;7095;51.388;6.196;2023-03-14T00:32:37;7.20;;;2.40;;
14040;SDS011;7095;51.388;6.196;2023-03-14T00:35:07;10.13;;;2.50;;
14040;SDS011;7095;51.388;6.196;2023-03-14T00:37:36;11.67;;;2.60;;
14040;SDS011;7095;51.388;6.196;2023-03-14T00:40:05;8.63;;;2.33;;
14040;SDS011;7095;51.388;6.196;2023-03-14T00:42:35;7.63;;;2.23;;
14040;SDS011;7095;51.388;6.196;2023-03-14T00:45:03;6.93;;;2.30;;
14040;SDS011;7095;51.388;6.196;2023-03-14T00:47:34;8.97;;;2.30;;
14040;SDS011;7095;51.388;6.196;2023-03-14T00:50:04;11.43;;;2.70;;
14040;SDS011;7095;51.388;6.196;2023-03-14T00:52:33;6.90;;;2.10;;
14040;SDS011;7095;51.388;6.196;2023-03-14T00:55:02;5.17;;;1.73;;
14040;SDS011;7095;51.388;6.196;2023-03-14T00:57:31;7.13;;;2.33;;
14040;SDS011;7095;51.388;6.196;2023-03-14T00:59:59;7.83;;;2.40;;
14040;SDS011;7095;51.388;6.196;2023-03-14T01:02:30;8.73;;;2.30;;
14040;SDS011;7095;51.388;6.196;2023-03-14T01:04:59;8.00;;;2.20;;
14040;SDS011;7095;51.388;6.196;2023-03-14T01:07:29;10.07;;;2.27;;
14040;SDS011;7095;51.388;6.196;2023-03-14T01:09:57;7.07;;;1.70;;
14040;SDS011;7095;51.388;6.196;2023-03-14T01:12:26;6.80;;;2.43;;
14040;SDS011;7095;51.388;6.196;2023-03-14T01:14:55;6.90;;;2.10;;
14040;SDS011;7095;51.388;6.196;2023-03-14T01:17:24;11.87;;;2.63;;
14040;SDS011;7095;51.388;6.196;2023-03-14T01:19:52;11.93;;;2.80;;
14040;SDS011;7095;51.388;6.196;2023-03-14T01:22:21;7.93;;;2.10;;
14040;SDS011;7095;51.388;6.196;2023-03-14T01:24:51;9.20;;;2.40;;
14040;SDS011;7095;51.388;6.196;2023-03-14T01:27:19;7.77;;;1.50;;
14040;SDS011;7095;51.388;6.196;2023-03-14T01:29:48;10.33;;;2.47;;
14040;SDS011;7095;51.388;6.196;2023-03-14T01:32:16;7.37;;;1.53;;
14040;SDS011;7095;51.388;6.196;2023-03-14T01:34:45;8.80;;;2.07;;
14040;SDS011;7095;51.388;6.196;2023-03-14T01:37:13;3.53;;;1.80;;
14040;SDS011;7095;51.388;6.196;2023-03-14T01:39:42;7.57;;;1.80;;
14040;SDS011;7095;51.388;6.196;2023-03-14T01:42:12;7.53;;;1.60;;
14040;SDS011;7095;51.388;6.196;2023-03-14T01:44:48;5.27;;;1.73;;
14040;SDS011;7095;51.388;6.196;2023-03-14T01:47:18;6.87;;;1.60;;
14040;SDS011;7095;51.388;6.196;2023-03-14T01:49:48;10.73;;;1.90;;
14040;SDS011;7095;51.388;6.196;2023-03-14T01:52:22;11.07;;;2.63;;
14040;SDS011;7095;51.388;6.196;2023-03-14T01:54:55;7.27;;;1.90;;
14040;SDS011;7095;51.388;6.196;2023-03-14T01:57:29;8.37;;;1.90;;
14040;SDS011;7095;51.388;6.196;2023-03-14T02:00:01;6.93;;;1.43;;
14040;SDS011;7095;51.388;6.196;2023-03-14T02:02:40;6.33;;;1.40;;
14040;SDS011;7095;51.388;6.196;2023-03-14T02:05:14;8.23;;;1.70;;
14040;SDS011;7095;51.388;6.196;2023-03-14T02:07:50;10.03;;;2.10;;
14040;SDS011;7095;51.388;6.196;2023-03-14T02:10:25;6.23;;;1.47;;
14040;SDS011;7095;51.388;6.196;2023-03-14T02:13:00;4.13;;;1.60;;
14040;SDS011;7095;51.388;6.196;2023-03-14T02:16:00;6.07;;;1.80;;
14040;SDS011;7095;51.388;6.196;2023-03-14T02:18:41;8.53;;;2.13;;
14040;SDS011;7095;51.388;6.196;2023-03-14T02:21:20;7.07;;;2.03;;
14040;SDS011;7095;51.388;6.196;2023-03-14T02:23:57;4.93;;;1.30;;
14040;SDS011;7095;51.388;6.196;2023-03-14T02:26:37;7.87;;;1.80;;
14040;SDS011;7095;51.388;6.196;2023-03-14T02:29:10;5.70;;;1.70;;
14040;SDS011;7095;51.388;6.196;2023-03-14T02:31:38;11.67;;;2.03;;
14040;SDS011;7095;51.388;6.196;2023-03-14T02:34:07;7.93;;;2.20;;
14040;SDS011;7095;51.388;6.196;2023-03-14T02:36:36;12.10;;;2.63;;
14040;SDS011;7095;51.388;6.196;2023-03-14T02:39:07;7.43;;;2.50;;
14040;SDS011;7095;51.388;6.196;2023-03-14T02:41:42;8.43;;;2.23;;
14040;SDS011;7095;51.388;6.196;2023-03-14T02:44:13;15.73;;;2.63;;
14040;SDS011;7095;51.388;6.196;2023-03-14T02:46:42;11.33;;;2.53;;
14040;SDS011;7095;51.388;6.196;2023-03-14T02:49:12;12.13;;;2.80;;
14040;SDS011;7095;51.388;6.196;2023-03-14T02:51:42;8.67;;;2.47;;
14040;SDS011;7095;51.388;6.196;2023-03-14T02:54:13;10.00;;;2.27;;
14040;SDS011;7095;51.388;6.196;2023-03-14T02:56:43;9.90;;;2.63;;
14040;SDS011;7095;51.388;6.196;2023-03-14T02:59:13;6.63;;;2.53;;
14040;SDS011;7095;51.388;6.196;2023-03-14T03:01:49;11.17;;;2.27;;
14040;SDS011;7095;51.388;6.196;2023-03-14T03:04:17;12.40;;;2.93;;
14040;SDS011;7095;51.388;6.196;2023-03-14T03:06:46;14.67;;;2.43;;
14040;SDS011;7095;51.388;6.196;2023-03-14T03:09:15;11.80;;;2.80;;
14040;SDS011;7095;51.388;6.196;2023-03-14T03:11:43;12.37;;;3.67;;
14040;SDS011;7095;51.388;6.196;2023-03-14T03:14:18;16.90;;;3.00;;
14040;SDS011;7095;51.388;6.196;2023-03-14T03:16:47;11.30;;;2.60;;
14040;SDS011;7095;51.388;6.196;2023-03-14T03:19:16;6.70;;;2.00;;
14040;SDS011;7095;51.388;6.196;2023-03-14T03:21:44;11.97;;;2.70;;
14040;SDS011;7095;51.388;6.196;2023-03-14T03:24:12;8.97;;;2.27;;
14040;SDS011;7095;51.388;6.196;2023-03-14T03:26:41;12.67;;;3.37;;
14040;SDS011;7095;51.388;6.196;2023-03-14T03:29:10;12.57;;;2.10;;
14040;SDS011;7095;51.388;6.196;2023-03-14T03:31:40;11.37;;;2.10;;
14040;SDS011;7095;51.388;6.196;2023-03-14T03:34:08;9.50;;;2.70;;
14040;SDS011;7095;51.388;6.196;2023-03-14T03:36:37;10.73;;;3.23;;
14040;SDS011;7095;51.388;6.196;2023-03-14T03:39:05;8.17;;;2.30;;
14040;SDS011;7095;51.388;6.196;2023-03-14T03:41:34;8.30;;;2.70;;
14040;SDS011;7095;51.388;6.196;2023-03-14T03:44:02;9.47;;;2.07;;
14040;SDS011;7095;51.388;6.196;2023-03-14T03:46:32;8.63;;;2.57;;
14040;SDS011;7095;51.388;6.196;2023-03-14T03:49:02;12.80;;;2.73;;
14040;SDS011;7095;51.388;6.196;2023-03-14T03:51:30;9.90;;;2.87;;
14040;SDS011;7095;51.388;6.196;2023-03-14T03:53:59;6.93;;;2.03;;
14040;SDS011;7095;51.388;6.196;2023-03-14T03:56:31;11.20;;;1.97;;
14040;SDS011;7095;51.388;6.196;2023-03-14T03:58:59;8.43;;;2.00;;
14040;SDS011;7095;51.388;6.196;2023-03-14T04:01:28;9.77;;;2.10;;
14040;SDS011;7095;51.388;6.196;2023-03-14T04:03:58;9.20;;;2.50;;
14040;SDS011;7095;51.388;6.196;2023-03-14T04:06:28;11.00;;;2.20;;
14040;SDS011;7095;51.388;6.196;2023-03-14T04:08:59;11.27;;;2.97;;
14040;SDS011;7095;51.388;6.196;2023-03-14T04:11:35;12.73;;;3.03;;
14040;SDS011;7095;51.388;6.196;2023-03-14T04:14:29;8.13;;;2.23;;
14040;SDS011;7095;51.388;6.196;2023-03-14T04:17:08;5.77;;;1.80;;
14040;SDS011;7095;51.388;6.196;2023-03-14T04:19:37;8.17;;;1.87;;
14040;SDS011;7095;51.388;6.196;2023-03-14T04:22:07;8.67;;;2.03;;
14040;SDS011;7095;51.388;6.196;2023-03-14T04:24:45;6.40;;;1.10;;
14040;SDS011;7095;51.388;6.196;2023-03-14T04:27:13;5.97;;;1.67;;
14040;SDS011;7095;51.388;6.196;2023-03-14T04:29:43;4.10;;;1.23;;
14040;SDS011;7095;51.388;6.196;2023-03-14T04:32:15;2.73;;;0.70;;
14040;SDS011;7095;51.388;6.196;2023-03-14T04:34:43;4.87;;;0.80;;
14040;SDS011;7095;51.388;6.196;2023-03-14T04:37:13;4.33;;;0.80;;
14040;SDS011;7095;51.388;6.196;2023-03-14T04:39:43;9.03;;;1.30;;
14040;SDS011;7095;51.388;6.196;2023-03-14T04:42:19;3.47;;;0.90;;
14040;SDS011;7095;51.388;6.196;2023-03-14T04:44:48;4.80;;;0.80;;
14040;SDS011;7095;51.388;6.196;2023-03-14T04:47:20;4.63;;;1.37;;
14040;SDS011;7095;51.388;6.196;2023-03-14T04:49:49;5.90;;;1.13;;
14040;SDS011;7095;51.388;6.196;2023-03-14T04:52:19;7.30;;;1.53;;
14040;SDS011;7095;51.388;6.196;2023-03-14T04:54:48;3.70;;;1.33;;
14040;SDS011;7095;51.388;6.196;2023-03-14T04:57:18;3.23;;;1.20;;
14040;SDS011;7095;51.388;6.196;2023-03-14T04:59:47;5.53;;;1.53;;
14040;SDS011;7095;51.388;6.196;2023-03-14T05:02:36;5.13;;;1.20;;
14040;SDS011;7095;51.388;6.196;2023-03-14T05:05:27;4.53;;;1.53;;
14040;SDS011;7095;51.388;6.196;2023-03-14T05:08:03;4.63;;;1.53;;
14040;SDS011;7095;51.388;6.196;2023-03-14T05:10:37;4.67;;;1.67;;
14040;SDS011;7095;51.388;6.196;2023-03-14T05:13:13;5.13;;;1.83;;
14040;SDS011;7095;51.388;6.196;2023-03-14T05:16:03;10.70;;;2.50;;
14040;SDS011;7095;51.388;6.196;2023-03-14T05:18:45;10.23;;;3.53;;
14040;SDS011;7095;51.388;6.196;2023-03-14T05:21:33;3.87;;;2.97;;
14040;SDS011;7095;51.388;6.196;2023-03-14T05:24:14;5.93;;;2.83;;
14040;SDS011;7095;51.388;6.196;2023-03-14T05:27:01;6.50;;;2.50;;
14040;SDS011;7095;51.388;6.196;2023-03-14T05:29:46;4.40;;;2.07;;
14040;SDS011;7095;51.388;6.196;2023-03-14T05:32:38;9.20;;;3.13;;
14040;SDS011;7095;51.388;6.196;2023-03-14T05:35:39;7.80;;;3.13;;
14040;SDS011;7095;51.388;6.196;2023-03-14T05:38:30;8.47;;;3.63;;
14040;SDS011;7095;51.388;6.196;2023-03-14T05:41:26;10.27;;;4.47;;
14040;SDS011;7095;51.388;6.196;2023-03-14T05:44:12;9.33;;;4.43;;
14040;SDS011;7095;51.388;6.196;2023-03-14T05:47:01;11.13;;;4.03;;
14040;SDS011;7095;51.388;6.196;2023-03-14T05:49:43;10.23;;;4.67;;
14040;SDS011;7095;51.388;6.196;2023-03-14T05:52:31;8.00;;;4.10;;
14040;SDS011;7095;51.388;6.196;2023-03-14T05:55:13;8.60;;;5.03;;
14040;SDS011;7095;51.388;6.196;2023-03-14T05:57:53;9.23;;;5.10;;
14040;SDS011;7095;51.388;6.196;2023-03-14T06:00:42;11.13;;;4.77;;
14040;SDS011;7095;51.388;6.196;2023-03-14T06:03:29;6.03;;;3.90;;
14040;SDS011;7095;51.388;6.196;2023-03-14T06:05:58;10.40;;;4.67;;
14040;SDS011;7095;51.388;6.196;2023-03-14T06:08:27;11.37;;;4.20;;
14040;SDS011;7095;51.388;6.196;2023-03-14T06:10:56;8.50;;;4.30;;
14040;SDS011;7095;51.388;6.196;2023-03-14T06:13:31;7.03;;;4.57;;
14040;SDS011;7095;51.388;6.196;2023-03-14T06:15:59;10.47;;;4.77;;
14040;SDS011;7095;51.388;6.196;2023-03-14T06:18:28;11.17;;;4.47;;
14040;SDS011;7095;51.388;6.196;2023-03-14T06:20:56;6.93;;;4.00;;
14040;SDS011;7095;51.388;6.196;2023-03-14T06:23:26;8.00;;;4.00;;
14040;SDS011;7095;51.388;6.196;2023-03-14T06:25:58;6.23;;;4.60;;
14040;SDS011;7095;51.388;6.196;2023-03-14T06:28:27;7.63;;;3.90;;
14040;SDS011;7095;51.388;6.196;2023-03-14T06:31:00;6.07;;;3.97;;
14040;SDS011;7095;51.388;6.196;2023-03-14T06:33:35;5.67;;;3.90;;
14040;SDS011;7095;51.388;6.196;2023-03-14T06:36:05;5.00;;;3.60;;
14040;SDS011;7095;51.388;6.196;2023-03-14T06:38:36;10.37;;;3.40;;
14040;SDS011;7095;51.388;6.196;2023-03-14T06:41:05;6.13;;;3.87;;
14040;SDS011;7095;51.388;6.196;2023-03-14T06:43:39;4.93;;;3.80;;
14040;SDS011;7095;51.388;6.196;2023-03-14T06:46:09;5.70;;;4.30;;
14040;SDS011;7095;51.388;6.196;2023-03-14T06:48:40;5.73;;;3.83;;
14040;SDS011;7095;51.388;6.196;2023-03-14T06:51:09;4.20;;;3.47;;
14040;SDS011;7095;51.388;6.196;2023-03-14T06:53:37;4.17;;;3.50;;
14040;SDS011;7095;51.388;6.196;2023-03-14T06:56:07;6.13;;;3.60;;
14040;SDS011;7095;51.388;6.196;2023-03-14T06:58:36;4.57;;;3.73;;
14040;SDS011;7095;51.388;6.196;2023-03-14T07:01:11;6.20;;;3.27;;
14040;SDS011;7095;51.388;6.196;2023-03-14T07:03:48;4.43;;;3.07;;
14040;SDS011;7095;51.388;6.196;2023-03-14T07:06:17;4.60;;;3.13;;
14040;SDS011;7095;51.388;6.196;2023-03-14T07:08:47;6.13;;;2.97;;
14040;SDS011;7095;51.388;6.196;2023-03-14T07:11:16;4.03;;;3.07;;
14040;SDS011;7095;51.388;6.196;2023-03-14T07:13:45;5.20;;;2.80;;
14040;SDS011;7095;51.388;6.196;2023-03-14T07:16:15;5.37;;;3.20;;
14040;SDS011;7095;51.388;6.196;2023-03-14T07:18:44;5.17;;;2.67;;
14040;SDS011;7095;51.388;6.196;2023-03-14T07:21:14;4.27;;;2.90;;
14040;SDS011;7095;51.388;6.196;2023-03-14T07:23:42;7.50;;;3.30;;
14040;SDS011;7095;51.388;6.196;2023-03-14T07:26:12;9.57;;;3.60;;
14040;SDS011;7095;51.388;6.196;2023-03-14T07:28:45;4.80;;;3.33;;
14040;SDS011;7095;51.388;6.196;2023-03-14T07:31:19;3.40;;;3.10;;
14040;SDS011;7095;51.388;6.196;2023-03-14T07:33:48;6.17;;;3.53;;
14040;SDS011;7095;51.388;6.196;2023-03-14T07:36:17;8.07;;;3.40;;
14040;SDS011;7095;51.388;6.196;2023-03-14T07:38:46;3.83;;;2.90;;
14040;SDS011;7095;51.388;6.196;2023-03-14T07:41:33;5.10;;;3.07;;
14040;SDS011;7095;51.388;6.196;2023-03-14T07:44:40;3.03;;;2.70;;
14040;SDS011;7095;51.388;6.196;2023-03-14T07:47:11;4.43;;;3.00;;
14040;SDS011;7095;51.388;6.196;2023-03-14T07:49:40;6.43;;;3.00;;
14040;SDS011;7095;51.388;6.196;2023-03-14T07:52:08;4.40;;;2.63;;
14040;SDS011;7095;51.388;6.196;2023-03-14T07:54:36;2.83;;;2.43;;
14040;SDS011;7095;51.388;6.196;2023-03-14T07:57:05;3.80;;;2.40;;
14040;SDS011;7095;51.388;6.196;2023-03-14T07:59:33;3.60;;;2.13;;
14040;SDS011;7095;51.388;6.196;2023-03-14T08:02:02;2.97;;;2.57;;
14040;SDS011;7095;51.388;6.196;2023-03-14T08:04:33;2.50;;;2.30;;
14040;SDS011;7095;51.388;6.196;2023-03-14T08:07:02;5.17;;;2.90;;
14040;SDS011;7095;51.388;6.196;2023-03-14T08:09:30;3.80;;;2.33;;
14040;SDS011;7095;51.388;6.196;2023-03-14T08:11:59;2.57;;;1.90;;
14040;SDS011;7095;51.388;6.196;2023-03-14T08:14:27;2.80;;;2.40;;
14040;SDS011;7095;51.388;6.196;2023-03-14T08:16:57;5.20;;;2.47;;
14040;SDS011;7095;51.388;6.196;2023-03-14T08:19:26;1.90;;;1.80;;
14040;SDS011;7095;51.388;6.196;2023-03-14T08:21:56;2.20;;;2.00;;
14040;SDS011;7095;51.388;6.196;2023-03-14T08:24:24;4.67;;;2.10;;
14040;SDS011;7095;51.388;6.196;2023-03-14T08:26:52;1.80;;;1.70;;
14040;SDS011;7095;51.388;6.196;2023-03-14T08:29:21;3.00;;;1.87;;
14040;SDS011;7095;51.388;6.196;2023-03-14T08:31:49;3.73;;;2.10;;
14040;SDS011;7095;51.388;6.196;2023-03-14T08:34:18;2.77;;;2.57;;
14040;SDS011;7095;51.388;6.196;2023-03-14T08:36:56;1.73;;;1.10;;
14040;SDS011;7095;51.388;6.196;2023-03-14T08:39:25;3.67;;;0.73;;
14040;SDS011;7095;51.388;6.196;2023-03-14T08:41:54;4.07;;;1.53;;
14040;SDS011;7095;51.388;6.196;2023-03-14T08:44:22;2.93;;;0.90;;
14040;SDS011;7095;51.388;6.196;2023-03-14T08:46:50;2.43;;;0.70;;
14040;SDS011;7095;51.388;6.196;2023-03-14T08:49:19;2.47;;;0.53;;
14040;SDS011;7095;51.388;6.196;2023-03-14T08:51:48;2.00;;;0.80;;
14040;SDS011;7095;51.388;6.196;2023-03-14T08:54:17;1.37;;;0.60;;
14040;SDS011;7095;51.388;6.196;2023-03-14T08:56:46;1.17;;;0.97;;
14040;SDS011;7095;51.388;6.196;2023-03-14T08:59:14;3.03;;;1.10;;
14040;SDS011;7095;51.388;6.196;2023-03-14T09:01:44;2.10;;;1.20;;
14040;SDS011;7095;51.388;6.196;2023-03-14T09:04:12;1.60;;;1.10;;
14040;SDS011;7095;51.388;6.196;2023-03-14T09:06:41;2.40;;;1.77;;
14040;SDS011;7095;51.388;6.196;2023-03-14T09:09:10;2.57;;;1.50;;
14040;SDS011;7095;51.388;6.196;2023-03-14T09:11:41;2.23;;;2.03;;
14040;SDS011;7095;51.388;6.196;2023-03-14T09:14:10;4.13;;;1.93;;
14040;SDS011;7095;51.388;6.196;2023-03-14T09:16:38;5.30;;;2.10;;
14040;SDS011;7095;51.388;6.196;2023-03-14T09:19:07;2.13;;;1.83;;
14040;SDS011;7095;51.388;6.196;2023-03-14T09:21:35;2.17;;;1.83;;
14040;SDS011;7095;51.388;6.196;2023-03-14T09:24:05;2.10;;;1.63;;
14040;SDS011;7095;51.388;6.196;2023-03-14T09:26:34;3.10;;;1.80;;
14040;SDS011;7095;51.388;6.196;2023-03-14T09:29:04;4.50;;;2.40;;
14040;SDS011;7095;51.388;6.196;2023-03-14T09:31:32;3.97;;;1.90;;
14040;SDS011;7095;51.388;6.196;2023-03-14T09:34:01;3.03;;;1.60;;
14040;SDS011;7095;51.388;6.196;2023-03-14T09:36:30;1.37;;;1.27;;
14040;SDS011;7095;51.388;6.196;2023-03-14T09:38:59;4.37;;;1.57;;
14040;SDS011;7095;51.388;6.196;2023-03-14T09:41:28;4.00;;;1.30;;
14040;SDS011;7095;51.388;6.196;2023-03-14T09:44:01;6.37;;;1.80;;
14040;SDS011;7095;51.388;6.196;2023-03-14T09:46:34;6.30;;;2.00;;
14040;SDS011;7095;51.388;6.196;2023-03-14T09:49:09;2.37;;;1.80;;
14040;SDS011;7095;51.388;6.196;2023-03-14T09:51:40;4.03;;;2.07;;
14040;SDS011;7095;51.388;6.196;2023-03-14T09:54:14;3.40;;;1.53;;
14040;SDS011;7095;51.388;6.196;2023-03-14T09:56:54;5.07;;;2.13;;
14040;SDS011;7095;51.388;6.196;2023-03-14T09:59:25;7.53;;;2.50;;
14040;SDS011;7095;51.388;6.196;2023-03-14T10:01:55;4.17;;;2.83;;
14040;SDS011;7095;51.388;6.196;2023-03-14T10:04:25;3.63;;;1.37;;
14040;SDS011;7095;51.388;6.196;2023-03-14T10:06:56;6.03;;;1.97;;
14040;SDS011;7095;51.388;6.196;2023-03-14T10:09:25;5.13;;;2.50;;
14040;SDS011;7095;51.388;6.196;2023-03-14T10:11:54;3.77;;;2.50;;
14040;SDS011;7095;51.388;6.196;2023-03-14T10:14:32;3.00;;;2.40;;
14040;SDS011;7095;51.388;6.196;2023-03-14T10:17:06;1.70;;;0.93;;
14040;SDS011;7095;51.388;6.196;2023-03-14T10:19:36;2.37;;;0.93;;
14040;SDS011;7095;51.388;6.196;2023-03-14T10:22:05;7.23;;;1.13;;
14040;SDS011;7095;51.388;6.196;2023-03-14T10:24:45;2.53;;;1.00;;
14040;SDS011;7095;51.388;6.196;2023-03-14T10:27:17;3.47;;;1.17;;
14040;SDS011;7095;51.388;6.196;2023-03-14T10:29:53;5.23;;;1.43;;
14040;SDS011;7095;51.388;6.196;2023-03-14T10:32:29;3.83;;;1.13;;
14040;SDS011;7095;51.388;6.196;2023-03-14T10:35:06;3.20;;;1.50;;
14040;SDS011;7095;51.388;6.196;2023-03-14T10:37:36;4.30;;;1.27;;
14040;SDS011;7095;51.388;6.196;2023-03-14T10:40:18;2.73;;;1.57;;
14040;SDS011;7095;51.388;6.196;2023-03-14T10:42:49;5.70;;;1.67;;
14040;SDS011;7095;51.388;6.196;2023-03-14T10:45:33;2.30;;;1.47;;
14040;SDS011;7095;51.388;6.196;2023-03-14T10:48:16;3.97;;;1.80;;
14040;SDS011;7095;51.388;6.196;2023-03-14T10:50:48;4.80;;;1.50;;
14040;SDS011;7095;51.388;6.196;2023-03-14T10:53:21;6.77;;;1.90;;
14040;SDS011;7095;51.388;6.196;2023-03-14T10:55:55;4.23;;;1.40;;
14040;SDS011;7095;51.388;6.196;2023-03-14T10:58:24;8.57;;;1.20;;
14040;SDS011;7095;51.388;6.196;2023-03-14T11:01:05;2.03;;;0.77;;
14040;SDS011;7095;51.388;6.196;2023-03-14T11:03:47;2.03;;;0.77;;
14040;SDS011;7095;51.388;6.196;2023-03-14T11:06:23;4.07;;;1.10;;
14040;SDS011;7095;51.388;6.196;2023-03-14T11:09:02;2.70;;;0.80;;
14040;SDS011;7095;51.388;6.196;2023-03-14T11:11:39;4.03;;;1.07;;
14040;SDS011;7095;51.388;6.196;2023-03-14T11:14:16;4.60;;;0.90;;
14040;SDS011;7095;51.388;6.196;2023-03-14T11:16:56;5.30;;;0.80;;
14040;SDS011;7095;51.388;6.196;2023-03-14T11:19:43;5.87;;;0.90;;
14040;SDS011;7095;51.388;6.196;2023-03-14T11:22:20;2.67;;;1.00;;
14040;SDS011;7095;51.388;6.196;2023-03-14T11:24:55;4.63;;;0.73;;
14040;SDS011;7095;51.388;6.196;2023-03-14T11:27:35;5.50;;;1.37;;
14040;SDS011;7095;51.388;6.196;2023-03-14T11:30:17;3.83;;;1.27;;
14040;SDS011;7095;51.388;6.196;2023-03-14T11:32:50;6.30;;;1.30;;
14040;SDS011;7095;51.388;6.196;2023-03-14T11:35:27;3.40;;;1.23;;
14040;SDS011;7095;51.388;6.196;2023-03-14T11:38:01;8.23;;;1.93;;
14040;SDS011;7095;51.388;6.196;2023-03-14T11:40:47;7.57;;;2.53;;
14040;SDS011;7095;51.388;6.196;2023-03-14T11:43:18;7.63;;;1.73;;
14040;SDS011;7095;51.388;6.196;2023-03-14T11:45:53;9.27;;;2.47;;
14040;SDS011;7095;51.388;6.196;2023-03-14T11:48:28;8.40;;;2.07;;
14040;SDS011;7095;51.388;6.196;2023-03-14T11:51:04;7.70;;;2.33;;
14040;SDS011;7095;51.388;6.196;2023-03-14T11:53:43;8.30;;;2.03;;
14040;SDS011;7095;51.388;6.196;2023-03-14T11:56:20;9.43;;;2.37;;
14040;SDS011;7095;51.388;6.196;2023-03-14T11:58:57;9.73;;;2.30;;
14040;SDS011;7095;51.388;6.196;2023-03-14T12:01:39;10.10;;;2.87;;
14040;SDS011;7095;51.388;6.196;2023-03-14T12:04:20;14.23;;;2.80;;
14040;SDS011;7095;51.388;6.196;2023-03-14T12:06:58;17.57;;;2.97;;
14040;SDS011;7095;51.388;6.196;2023-03-14T12:09:31;11.30;;;2.33;;
14040;SDS011;7095;51.388;6.196;2023-03-14T12:12:00;14.50;;;2.87;;
14040;SDS011;7095;51.388;6.196;2023-03-14T12:14:33;16.20;;;3.40;;
14040;SDS011;7095;51.388;6.196;2023-03-14T12:17:04;18.30;;;3.70;;
14040;SDS011;7095;51.388;6.196;2023-03-14T12:19:36;17.70;;;3.80;;
14040;SDS011;7095;51.388;6.196;2023-03-14T12:30:48;8.47;;;2.20;;
14040;SDS011;7095;51.388;6.196;2023-03-14T12:33:21;7.67;;;1.63;;
14040;SDS011;7095;51.388;6.196;2023-03-14T12:36:09;10.97;;;1.93;;
14040;SDS011;7095;51.388;6.196;2023-03-14T12:38:56;7.37;;;1.70;;
14040;SDS011;7095;51.388;6.196;2023-03-14T12:41:41;9.23;;;2.37;;
14040;SDS011;7095;51.388;6.196;2023-03-14T12:50:13;13.60;;;3.13;;
14040;SDS011;7095;51.388;6.196;2023-03-14T12:52:51;15.47;;;3.13;;
14040;SDS011;7095;51.388;6.196;2023-03-14T12:55:48;15.00;;;3.13;;
14040;SDS011;7095;51.388;6.196;2023-03-14T12:58:24;20.73;;;4.53;;
14040;SDS011;7095;51.388;6.196;2023-03-14T13:00:59;10.43;;;2.67;;
14040;SDS011;7095;51.388;6.196;2023-03-14T13:03:36;15.50;;;3.00;;
14040;SDS011;7095;51.388;6.196;2023-03-14T13:06:08;15.00;;;2.63;;
14040;SDS011;7095;51.388;6.196;2023-03-14T13:08:40;17.73;;;3.23;;
14040;SDS011;7095;51.388;6.196;2023-03-14T13:11:10;17.27;;;3.77;;
14040;SDS011;7095;51.388;6.196;2023-03-14T13:13:45;19.00;;;4.10;;
14040;SDS011;7095;51.388;6.196;2023-03-14T13:16:16;21.07;;;4.03;;
14040;SDS011;7095;51.388;6.196;2023-03-14T13:18:47;27.70;;;4.97;;
14040;SDS011;7095;51.388;6.196;2023-03-14T13:21:18;20.43;;;4.13;;
14040;SDS011;7095;51.388;6.196;2023-03-14T13:23:57;19.20;;;3.60;;
14040;SDS011;7095;51.388;6.196;2023-03-14T13:26:32;22.90;;;3.30;;
14040;SDS011;7095;51.388;6.196;2023-03-14T13:29:08;22.47;;;4.40;;
14040;SDS011;7095;51.388;6.196;2023-03-14T13:31:43;15.83;;;3.70;;
14040;SDS011;7095;51.388;6.196;2023-03-14T13:34:12;19.27;;;3.80;;
14040;SDS011;7095;51.388;6.196;2023-03-14T13:36:41;18.60;;;3.70;;
14040;SDS011;7095;51.388;6.196;2023-03-14T13:39:13;20.77;;;3.93;;
14040;SDS011;7095;51.388;6.196;2023-03-14T13:41:45;14.70;;;4.00;;
14040;SDS011;7095;51.388;6.196;2023-03-14T13:44:15;18.00;;;3.73;;
14040;SDS011;7095;51.388;6.196;2023-03-14T13:46:46;17.83;;;4.27;;
14040;SDS011;7095;51.388;6.196;2023-03-14T13:49:17;16.90;;;3.83;;
14040;SDS011;7095;51.388;6.196;2023-03-14T13:51:50;14.47;;;3.37;;
14040;SDS011;7095;51.388;6.196;2023-03-14T13:54:20;11.53;;;2.90;;
14040;SDS011;7095;51.388;6.196;2023-03-14T13:56:58;11.30;;;2.57;;
14040;SDS011;7095;51.388;6.196;2023-03-14T13:59:28;15.67;;;3.77;;
14040;SDS011;7095;51.388;6.196;2023-03-14T14:01:59;14.00;;;3.00;;
14040;SDS011;7095;51.388;6.196;2023-03-14T14:04:32;12.77;;;2.93;;
14040;SDS011;7095;51.388;6.196;2023-03-14T14:07:06;10.33;;;2.63;;
14040;SDS011;7095;51.388;6.196;2023-03-14T14:09:38;14.37;;;2.60;;
14040;SDS011;7095;51.388;6.196;2023-03-14T14:12:11;14.73;;;3.73;;
14040;SDS011;7095;51.388;6.196;2023-03-14T14:14:44;11.70;;;2.67;;
14040;SDS011;7095;51.388;6.196;2023-03-14T14:17:17;9.90;;;2.70;;
14040;SDS011;7095;51.388;6.196;2023-03-14T14:19:49;8.40;;;2.50;;
14040;SDS011;7095;51.388;6.196;2023-03-14T14:22:18;13.30;;;2.07;;
14040;SDS011;7095;51.388;6.196;2023-03-14T14:24:49;10.83;;;2.30;;
14040;SDS011;7095;51.388;6.196;2023-03-14T14:27:19;4.97;;;1.63;;
14040;SDS011;7095;51.388;6.196;2023-03-14T14:29:57;6.97;;;2.13;;
14040;SDS011;7095;51.388;6.196;2023-03-14T14:32:34;14.77;;;2.40;;
14040;SDS011;7095;51.388;6.196;2023-03-14T14:35:04;8.77;;;2.17;;
14040;SDS011;7095;51.388;6.196;2023-03-14T14:37:34;8.93;;;2.53;;
14040;SDS011;7095;51.388;6.196;2023-03-14T14:40:15;9.13;;;2.07;;
14040;SDS011;7095;51.388;6.196;2023-03-14T14:42:47;8.97;;;2.37;;
14040;SDS011;7095;51.388;6.196;2023-03-14T14:45:17;10.03;;;2.27;;
14040;SDS011;7095;51.388;6.196;2023-03-14T14:47:48;7.63;;;1.80;;
14040;SDS011;7095;51.388;6.196;2023-03-14T14:50:27;11.07;;;2.17;;
14040;SDS011;7095;51.388;6.196;2023-03-14T14:52:57;10.53;;;2.37;;
14040;SDS011;7095;51.388;6.196;2023-03-14T14:55:31;10.17;;;1.90;;
14040;SDS011;7095;51.388;6.196;2023-03-14T14:58:11;7.10;;;1.97;;
14040;SDS011;7095;51.388;6.196;2023-03-14T15:00:51;7.93;;;2.67;;
14040;SDS011;7095;51.388;6.196;2023-03-14T15:03:23;10.37;;;2.03;;
14040;SDS011;7095;51.388;6.196;2023-03-14T15:05:55;7.57;;;2.67;;
14040;SDS011;7095;51.388;6.196;2023-03-14T15:08:24;9.27;;;2.13;;
14040;SDS011;7095;51.388;6.196;2023-03-14T15:10:56;9.70;;;3.37;;
14040;SDS011;7095;51.388;6.196;2023-03-14T15:13:24;9.87;;;3.23;;
14040;SDS011;7095;51.388;6.196;2023-03-14T15:15:53;6.23;;;1.70;;
14040;SDS011;7095;51.388;6.196;2023-03-14T15:18:23;9.27;;;2.37;;
14040;SDS011;7095;51.388;6.196;2023-03-14T15:20:56;10.70;;;2.50;;
14040;SDS011;7095;51.388;6.196;2023-03-14T15:23:25;8.90;;;2.13;;
14040;SDS011;7095;51.388;6.196;2023-03-14T15:25:53;7.60;;;1.90;;
14040;SDS011;7095;51.388;6.196;2023-03-14T15:28:24;6.63;;;1.83;;
14040;SDS011;7095;51.388;6.196;2023-03-14T15:30:54;9.43;;;2.20;;
14040;SDS011;7095;51.388;6.196;2023-03-14T15:33:24;12.10;;;2.63;;
14040;SDS011;7095;51.388;6.196;2023-03-14T15:35:54;7.57;;;1.73;;
14040;SDS011;7095;51.388;6.196;2023-03-14T15:38:23;6.40;;;1.73;;
14040;SDS011;7095;51.388;6.196;2023-03-14T15:40:52;11.40;;;1.70;;
14040;SDS011;7095;51.388;6.196;2023-03-14T15:43:21;13.40;;;2.40;;
14040;SDS011;7095;51.388;6.196;2023-03-14T15:45:51;9.67;;;2.60;;